Blue Diamond, NV (89004)

7:21 PM PDT on August 27, 2015 (GMT -0700)
Red Rock Country Club | | Change Station
CLOSE
Current Station
Personal Weather Station
Location: Las Vegas, NV
Elevation: 3087 ft
Nearby Weather Stations

Elev 3087 ft 36.15 °N, 115.34 °W | Updated 8 minutes ago

Clear
Clear
90.9 °F
Feels Like 88 °F
N
0.0
Wind Variable Wind from ENE
Gusts 0.0 mph

Today
High -- | Low -- °F
--% Chance of Precip.
Yesterday
High -- | Low -- °F
Precip. -- in
6:09 AM 7:16 PM
Waxing Gibbous, 96% visible
Pressure 29.81 in
Visibility 10.0 miles
Clouds Few 10000 ft
Scattered Clouds 20000 ft
Heat Index 88 °F
Dew Point 50 °F
Humidity 25%
Rainfall 0.00 in
Snow Depth Not available.
UV 0 out of 12
Pollen 5.60 out of 12
Air Quality Not available.
Flu Activity Not available.
METAR KLAS 280156Z 11003KT 10SM FEW100 SCT200 37/10 A2990 RMK AO2 SLP094 T03670100
Pressure 29.81 in
Visibility 10.0 miles
Clouds Few 10000 ft
Scattered Clouds 20000 ft
Heat Index 88 °F
Dew Point 50 °F
Humidity 25%
Rainfall 0.00 in
Snow Depth Not available.
UV 0 out of 12
Pollen 5.60 out of 12
Air Quality Not available.
Flu Activity Not available.
METAR KLAS 280156Z 11003KT 10SM FEW100 SCT200 37/10 A2990 RMK AO2 SLP094 T03670100

10-Day Weather Forecast

×

Almanac

Astronomy

Aug. 27, 2015 Rise Set
Actual Time
Civil Twilight
Nautical Twilight
Astronomical Twilight
Moon
Length of Visible Light
Length of Day
Tomorrow will be .
, % of the Moon is Illuminated

Today's Extremes

State Highs State Lows

Community

WunderPhotos

Upload Photos

1,850,301 photos uploaded!

WunderBlogs® & News

Nearby

Air Quality

  Air Quality AQ Index Pollutant
Not available.

Snow Depth

Station Depth Elevation

Earthquake Activity

City Distance Mag. Time & Date
Minimum magnitude displayed is 2.5.

Coastal Water Temperatures

Place Temperature

Stations

Nearby Weather Stations

Station Location Temp. Windchill Dew Point Humidity Wind Precip. Elev Updated Type